createdAt,value
2022-12-03T00:22:24.808Z,27
2022-12-03T00:50:37.880Z,25
2022-12-03T01:18:55.966Z,26
2022-12-03T01:47:15.809Z,24
2022-12-03T02:15:30.057Z,28
2022-12-03T02:43:52.892Z,27
2022-12-03T03:12:12.891Z,27
2022-12-03T03:40:29.202Z,27
2022-12-03T04:08:40.307Z,27
2022-12-03T04:37:03.046Z,29
2022-12-03T05:05:13.436Z,30
2022-12-03T05:33:38.337Z,31
2022-12-03T06:01:45.041Z,30
2022-12-03T06:29:58.714Z,30
2022-12-03T06:58:22.739Z,31
2022-12-03T07:26:40.472Z,35
2022-12-03T07:54:55.438Z,34
2022-12-03T08:23:07.393Z,35
2022-12-03T08:51:23.403Z,37
2022-12-03T09:19:42.766Z,38
2022-12-03T09:47:46.076Z,41
2022-12-03T10:16:06.113Z,38
2022-12-03T10:44:31.744Z,43
2022-12-03T11:12:32.592Z,41
2022-12-03T11:40:47.822Z,41
2022-12-03T12:09:01.790Z,42
2022-12-03T12:37:23.375Z,43
2022-12-03T13:06:19.716Z,44
2022-12-03T13:35:03.923Z,45
2022-12-03T14:03:58.782Z,43
2022-12-03T14:32:45.372Z,47
2022-12-03T15:01:49.822Z,47
2022-12-03T15:29:51.673Z,46
2022-12-03T15:58:05.227Z,49
2022-12-03T16:26:50.349Z,48
2022-12-03T16:55:53.336Z,50
2022-12-03T17:24:45.323Z,53
2022-12-03T17:53:32.140Z,55
2022-12-03T18:22:21.648Z,63
2022-12-03T18:50:32.873Z,67
2022-12-03T19:18:48.990Z,76
2022-12-03T19:47:02.145Z,65
2022-12-03T20:15:21.419Z,50
2022-12-03T20:44:13.351Z,66
2022-12-03T21:13:02.699Z,65
2022-12-03T21:42:19.475Z,60
2022-12-03T22:10:09.540Z,61
2022-12-03T22:39:03.344Z,60
2022-12-03T23:07:49.019Z,58
2022-12-03T23:36:43.594Z,53
